Time;durP1;ratioP1;P1;durP2;ratioP2;P2;SDS_P1;SDS_P2;PMS_P1;PMS_P2;Temp;Humidity;BMP_temperature;BMP_pressure;BME280_temperature;BME280_humidity;BME280_pressure;Samples;Min_cycle;Max_cycle;Signal;HPM_P1;HPM_P2
2023/07/11 00:00:39;;;;;;;;;;;20.40;99.90;;;;;;2096328;28;19924;-70
2023/07/11 00:01:39;;;;;;;;;;;20.40;99.90;;;;;;2096256;28;19920;-71
2023/07/11 00:02:44;;;;;;;;;;;20.40;99.90;;;;;;2096262;28;19916;-70
2023/07/11 00:03:44;;;;;;;;;;;20.40;99.90;;;;;;2096428;28;19931;-69
2023/07/11 00:04:45;;;;;;;;;;;20.40;99.90;;;;;;2098095;28;19931;-69
2023/07/11 00:05:56;;;;;;;;;;;20.40;99.90;;;;;;2088504;28;19917;-70
2023/07/11 00:06:57;;;;;;;;;;;20.40;99.90;;;;;;2094425;28;19923;-70
2023/07/11 00:07:58;;;;;;;;;;;20.40;99.90;;;;;;2091405;28;19923;-70
2023/07/11 00:08:58;;;;;;;;;;;20.40;99.90;;;;;;2091691;28;19921;-70
2023/07/11 00:09:59;;;;;;;;;;;20.30;99.90;;;;;;2095212;28;19966;-70
2023/07/11 00:10:59;;;;;;;;;;;20.30;99.90;;;;;;2098074;28;19920;-70
2023/07/11 00:11:59;;;;;;;;;;;20.30;99.90;;;;;;2096667;28;19916;-71
2023/07/11 00:13:00;;;;;;;;;;;20.30;99.90;;;;;;2092903;28;20748;-70
2023/07/11 00:14:01;;;;;;;;;;;20.30;99.90;;;;;;2096087;28;19958;-70
2023/07/11 00:15:02;;;;;;;;;;;20.20;99.90;;;;;;2096124;28;19916;-70
2023/07/11 00:16:05;;;;;;;;;;;20.20;99.90;;;;;;2093646;28;19924;-71
2023/07/11 00:17:05;;;;;;;;;;;20.20;99.90;;;;;;2095009;28;20094;-70
2023/07/11 00:18:06;;;;;;;;;;;20.20;99.90;;;;;;2095416;28;20287;-70
2023/07/11 00:19:06;;;;;;;;;;;20.20;99.90;;;;;;2095502;28;20022;-70
2023/07/11 00:20:11;;;;;;;;;;;20.20;99.90;;;;;;2097213;28;19947;-70
2023/07/11 00:21:11;;;;;;;;;;;20.20;99.90;;;;;;2091985;28;20371;-70
2023/07/11 00:22:12;;;;;;;;;;;20.20;99.90;;;;;;2096724;28;19970;-69
2023/07/11 00:23:13;;;;;;;;;;;20.20;99.90;;;;;;2096578;28;19916;-69
2023/07/11 00:24:13;;;;;;;;;;;20.10;99.90;;;;;;2096279;28;20520;-69
2023/07/11 00:25:14;;;;;;;;;;;20.10;99.90;;;;;;2097165;28;19916;-69
2023/07/11 00:26:15;;;;;;;;;;;20.10;99.90;;;;;;2094464;28;19920;-70
2023/07/11 00:27:17;;;;;;;;;;;20.10;99.90;;;;;;2095015;28;19916;-71
2023/07/11 00:28:18;;;;;;;;;;;20.10;99.90;;;;;;2095288;28;20391;-69
2023/07/11 00:29:19;;;;;;;;;;;20.10;99.90;;;;;;2098012;28;19985;-69
2023/07/11 00:30:19;;;;;;;;;;;20.10;99.90;;;;;;2096360;28;19924;-69
2023/07/11 00:31:20;;;;;;;;;;;20.00;99.90;;;;;;2093022;28;19917;-69
2023/07/11 00:32:20;;;;;;;;;;;20.00;99.90;;;;;;2095996;28;19916;-69
2023/07/11 00:33:21;;;;;;;;;;;20.00;99.90;;;;;;2095795;28;19912;-69
2023/07/11 00:34:21;;;;;;;;;;;20.00;99.90;;;;;;2097729;28;19919;-69
2023/07/11 00:35:22;;;;;;;;;;;20.00;99.90;;;;;;2095264;28;20388;-70
2023/07/11 00:36:22;;;;;;;;;;;20.00;99.90;;;;;;2096035;28;19947;-69
2023/07/11 00:37:23;;;;;;;;;;;19.90;99.90;;;;;;2096809;28;19951;-68
2023/07/11 00:38:25;;;;;;;;;;;19.90;99.90;;;;;;2099561;28;19922;-69
2023/07/11 00:39:28;;;;;;;;;;;19.90;99.90;;;;;;2098250;28;20445;-69
2023/07/11 00:40:29;;;;;;;;;;;19.90;99.90;;;;;;2094281;28;19963;-70
2023/07/11 00:41:30;;;;;;;;;;;19.90;99.90;;;;;;2098171;28;19947;-71
2023/07/11 00:42:32;;;;;;;;;;;19.90;99.90;;;;;;2099832;28;20009;-70
2023/07/11 00:43:33;;;;;;;;;;;19.90;99.90;;;;;;2095880;28;19920;-70
2023/07/11 00:44:53;;;;;;;;;;;19.80;99.90;;;;;;2095515;28;19916;-70
2023/07/11 00:46:11;;;;;;;;;;;19.80;99.90;;;;;;2099238;28;19915;-70
2023/07/11 00:47:11;;;;;;;;;;;19.80;99.90;;;;;;2098752;28;19920;-70
2023/07/11 00:48:13;;;;;;;;;;;19.80;99.90;;;;;;2098779;28;19944;-70
2023/07/11 00:49:14;;;;;;;;;;;19.80;99.90;;;;;;2096837;28;20284;-70
2023/07/11 00:50:15;;;;;;;;;;;19.80;99.90;;;;;;2095753;28;20205;-70
2023/07/11 00:51:18;;;;;;;;;;;19.80;99.90;;;;;;2095273;28;20292;-70
2023/07/11 00:52:22;;;;;;;;;;;19.80;99.90;;;;;;2092333;28;19927;-70
2023/07/11 00:53:23;;;;;;;;;;;19.80;99.90;;;;;;2098832;28;19912;-70
2023/07/11 00:54:30;;;;;;;;;;;19.80;99.90;;;;;;2092745;28;19917;-70
2023/07/11 00:55:31;;;;;;;;;;;19.80;99.90;;;;;;2093309;28;20429;-70
2023/07/11 00:56:33;;;;;;;;;;;19.80;99.90;;;;;;2096998;28;19942;-70
2023/07/11 00:57:35;;;;;;;;;;;19.80;99.90;;;;;;2097185;28;20390;-70
2023/07/11 00:58:37;;;;;;;;;;;19.80;99.90;;;;;;2087777;28;19917;-70
2023/07/11 00:59:37;;;;;;;;;;;19.70;99.90;;;;;;2098632;28;19974;-70
2023/07/11 01:00:38;;;;;;;;;;;19.70;99.90;;;;;;2096207;28;19916;-70
2023/07/11 01:01:39;;;;;;;;;;;19.70;99.90;;;;;;2096529;28;19925;-70
2023/07/11 01:02:39;;;;;;;;;;;19.70;99.90;;;;;;2095561;28;20293;-70
2023/07/11 01:03:40;;;;;;;;;;;19.60;99.90;;;;;;2091054;28;20019;-71
2023/07/11 01:04:42;;;;;;;;;;;19.70;99.90;;;;;;2097763;28;20367;-70
2023/07/11 01:05:43;;;;;;;;;;;19.70;99.90;;;;;;2096634;28;19918;-69
2023/07/11 01:06:43;;;;;;;;;;;19.70;99.90;;;;;;2088266;28;20322;-70
2023/07/11 01:07:44;;;;;;;;;;;19.70;99.90;;;;;;2092394;28;20390;-70
2023/07/11 01:08:45;;;;;;;;;;;19.60;99.90;;;;;;2093145;28;19947;-70
2023/07/11 01:09:46;;;;;;;;;;;19.60;99.90;;;;;;2090401;28;19923;-70
2023/07/11 01:10:46;;;;;;;;;;;19.70;99.90;;;;;;2095464;28;20303;-70
2023/07/11 01:11:53;;;;;;;;;;;19.60;99.90;;;;;;2096472;28;19924;-70
2023/07/11 01:12:57;;;;;;;;;;;19.60;99.90;;;;;;2095631;28;20665;-70
2023/07/11 01:13:58;;;;;;;;;;;19.60;99.90;;;;;;2090346;28;20405;-70
2023/07/11 01:14:59;;;;;;;;;;;19.60;99.90;;;;;;2088634;28;19923;-70
2023/07/11 01:15:59;;;;;;;;;;;19.60;99.90;;;;;;2094154;28;19920;-70
2023/07/11 01:16:59;;;;;;;;;;;19.50;99.90;;;;;;2098613;28;20460;-70
2023/07/11 01:18:00;;;;;;;;;;;19.50;99.90;;;;;;2097548;28;19923;-70
2023/07/11 01:19:01;;;;;;;;;;;19.50;99.90;;;;;;2099637;28;20357;-70
2023/07/11 01:20:03;;;;;;;;;;;19.50;99.90;;;;;;2092192;28;19916;-69
2023/07/11 01:21:04;;;;;;;;;;;19.50;99.90;;;;;;2095396;28;20447;-70
2023/07/11 01:22:05;;;;;;;;;;;19.50;99.90;;;;;;2095796;28;20395;-69
2023/07/11 01:23:06;;;;;;;;;;;19.50;99.90;;;;;;2097960;28;19924;-70
2023/07/11 01:24:07;;;;;;;;;;;19.50;99.90;;;;;;2099259;28;20354;-70
2023/07/11 01:25:12;;;;;;;;;;;19.50;99.90;;;;;;2092788;28;20000;-69
2023/07/11 01:26:13;;;;;;;;;;;19.50;99.90;;;;;;2096388;28;20550;-71
2023/07/11 01:27:13;;;;;;;;;;;19.50;99.90;;;;;;2096655;28;19923;-69
2023/07/11 01:28:14;;;;;;;;;;;19.50;99.90;;;;;;2096499;28;19931;-69
2023/07/11 01:29:14;;;;;;;;;;;19.50;99.90;;;;;;2097460;28;19969;-69
2023/07/11 01:30:16;;;;;;;;;;;19.50;99.90;;;;;;2097852;28;19927;-69
2023/07/11 01:31:17;;;;;;;;;;;19.50;99.90;;;;;;2095682;28;19924;-70
2023/07/11 01:32:18;;;;;;;;;;;19.50;99.90;;;;;;2096270;28;19912;-69
2023/07/11 01:33:18;;;;;;;;;;;19.50;99.90;;;;;;2091712;28;19966;-69
2023/07/11 01:34:19;;;;;;;;;;;19.50;99.90;;;;;;2099518;28;19967;-69
2023/07/11 01:35:19;;;;;;;;;;;19.50;99.90;;;;;;2093379;28;19927;-70
2023/07/11 01:36:20;;;;;;;;;;;19.40;99.90;;;;;;2093563;28;19912;-69
2023/07/11 01:37:21;;;;;;;;;;;19.40;99.90;;;;;;2096759;28;19930;-69
2023/07/11 01:38:22;;;;;;;;;;;19.40;99.90;;;;;;2097551;28;20194;-70
2023/07/11 01:39:23;;;;;;;;;;;19.40;99.90;;;;;;2097538;28;19969;-69
2023/07/11 01:40:23;;;;;;;;;;;19.40;99.90;;;;;;2098359;28;20394;-70
2023/07/11 01:41:24;;;;;;;;;;;19.40;99.90;;;;;;2096640;28;20003;-70
2023/07/11 01:42:24;;;;;;;;;;;19.40;99.90;;;;;;2096305;28;20383;-70
2023/07/11 01:43:25;;;;;;;;;;;19.40;99.90;;;;;;2097896;28;19912;-70
2023/07/11 01:44:26;;;;;;;;;;;19.40;99.90;;;;;;2097012;28;20356;-70
2023/07/11 01:45:27;;;;;;;;;;;19.40;99.90;;;;;;2096874;28;20000;-69
2023/07/11 01:46:28;;;;;;;;;;;19.40;99.90;;;;;;2096473;28;19912;-70
2023/07/11 01:47:29;;;;;;;;;;;19.40;99.90;;;;;;2096714;28;19916;-70
2023/07/11 01:48:32;;;;;;;;;;;19.40;99.90;;;;;;2098263;28;19999;-69
2023/07/11 01:49:33;;;;;;;;;;;19.40;99.90;;;;;;2092496;28;19916;-70
2023/07/11 01:50:33;;;;;;;;;;;19.30;99.90;;;;;;2095241;28;19916;-70
2023/07/11 01:51:34;;;;;;;;;;;19.30;99.90;;;;;;2095551;28;19916;-69
2023/07/11 01:52:34;;;;;;;;;;;19.30;99.90;;;;;;2098312;28;20011;-70
2023/07/11 01:53:35;;;;;;;;;;;19.30;99.90;;;;;;2087215;28;19964;-69
2023/07/11 01:54:35;;;;;;;;;;;19.20;99.90;;;;;;2095001;28;19912;-69
2023/07/11 01:55:37;;;;;;;;;;;19.20;99.90;;;;;;2093039;28;20475;-70
2023/07/11 01:56:38;;;;;;;;;;;19.20;99.90;;;;;;2092864;28;19916;-70
2023/07/11 01:57:38;;;;;;;;;;;19.20;99.90;;;;;;2093862;28;19912;-70
2023/07/11 01:58:39;;;;;;;;;;;19.20;99.90;;;;;;2084506;28;19920;-70
2023/07/11 01:59:40;;;;;;;;;;;19.20;99.90;;;;;;2093408;28;19912;-69
2023/07/11 02:00:40;;;;;;;;;;;19.10;99.90;;;;;;2090564;28;20291;-68
2023/07/11 02:01:41;;;;;;;;;;;19.10;99.90;;;;;;2098346;28;19920;-69
2023/07/11 02:02:41;;;;;;;;;;;19.10;99.90;;;;;;2096568;28;19935;-70
2023/07/11 02:03:41;;;;;;;;;;;19.10;99.90;;;;;;2096036;28;19986;-70
2023/07/11 02:04:43;;;;;;;;;;;19.10;99.90;;;;;;2097295;28;19951;-70
2023/07/11 02:05:43;;;;;;;;;;;19.10;99.90;;;;;;2097741;28;19916;-71
2023/07/11 02:06:44;;;;;;;;;;;19.10;99.90;;;;;;2090039;28;19947;-70
2023/07/11 02:07:46;;;;;;;;;;;19.10;99.90;;;;;;2098377;28;19912;-70
2023/07/11 02:08:46;;;;;;;;;;;19.10;99.90;;;;;;2090159;28;19913;-68
2023/07/11 02:09:47;;;;;;;;;;;19.10;99.90;;;;;;2099005;28;20386;-69
2023/07/11 02:10:47;;;;;;;;;;;19.10;99.90;;;;;;2091917;28;20922;-70
2023/07/11 02:11:48;;;;;;;;;;;19.10;99.90;;;;;;2096566;28;20013;-70
2023/07/11 02:12:48;;;;;;;;;;;19.00;99.90;;;;;;2093523;28;19948;-70
2023/07/11 02:13:49;;;;;;;;;;;19.00;99.90;;;;;;2097525;28;20530;-70
2023/07/11 02:14:49;;;;;;;;;;;19.00;99.90;;;;;;2086897;28;19920;-71
2023/07/11 02:15:50;;;;;;;;;;;19.10;99.90;;;;;;2095204;28;19920;-68
2023/07/11 02:16:53;;;;;;;;;;;19.00;99.90;;;;;;2096131;28;20067;-70
2023/07/11 02:17:54;;;;;;;;;;;19.00;99.90;;;;;;2098628;28;20127;-71
2023/07/11 02:18:55;;;;;;;;;;;19.00;99.90;;;;;;2095754;28;20406;-71
2023/07/11 02:19:56;;;;;;;;;;;19.10;99.90;;;;;;2094128;28;19962;-71
2023/07/11 02:20:57;;;;;;;;;;;19.00;99.90;;;;;;2096619;28;19923;-70
2023/07/11 02:21:57;;;;;;;;;;;19.00;99.90;;;;;;2098884;28;19986;-70
2023/07/11 02:22:59;;;;;;;;;;;19.00;99.90;;;;;;2095798;28;19920;-68
2023/07/11 02:24:00;;;;;;;;;;;19.00;99.90;;;;;;2095354;28;19967;-70
2023/07/11 02:25:00;;;;;;;;;;;19.00;99.90;;;;;;2095815;28;20445;-71
2023/07/11 02:26:01;;;;;;;;;;;18.90;99.90;;;;;;2097545;28;19921;-70
2023/07/11 02:27:01;;;;;;;;;;;18.90;99.90;;;;;;2098698;28;19966;-70
2023/07/11 02:28:02;;;;;;;;;;;18.90;99.90;;;;;;2097137;28;19913;-71
2023/07/11 02:29:04;;;;;;;;;;;18.90;99.90;;;;;;2097474;28;19923;-71
2023/07/11 02:30:04;;;;;;;;;;;18.90;99.90;;;;;;2097162;28;19924;-68
2023/07/11 02:31:05;;;;;;;;;;;18.90;99.90;;;;;;2097510;28;19912;-70
2023/07/11 02:32:05;;;;;;;;;;;18.90;99.90;;;;;;2086904;28;19977;-70
2023/07/11 02:33:06;;;;;;;;;;;18.90;99.90;;;;;;2095090;28;19912;-70
2023/07/11 02:34:06;;;;;;;;;;;18.90;99.90;;;;;;2095888;28;19939;-70
2023/07/11 02:35:07;;;;;;;;;;;18.90;99.90;;;;;;2098555;28;20375;-70
2023/07/11 02:36:07;;;;;;;;;;;18.90;99.90;;;;;;2096713;28;19920;-70
2023/07/11 02:37:08;;;;;;;;;;;18.90;99.90;;;;;;2092483;28;19921;-70
2023/07/11 02:38:08;;;;;;;;;;;18.80;99.90;;;;;;2096986;28;19919;-71
2023/07/11 02:39:09;;;;;;;;;;;18.90;99.90;;;;;;2096342;28;19923;-70
2023/07/11 02:40:09;;;;;;;;;;;18.90;99.90;;;;;;2097502;28;19916;-70
2023/07/11 02:41:10;;;;;;;;;;;18.80;99.90;;;;;;2095196;28;20383;-72
2023/07/11 02:42:10;;;;;;;;;;;18.80;99.90;;;;;;2095098;28;20333;-70
2023/07/11 02:43:11;;;;;;;;;;;18.80;99.90;;;;;;2095858;28;19917;-70
2023/07/11 02:44:11;;;;;;;;;;;18.80;99.90;;;;;;2098910;28;19936;-70
2023/07/11 02:45:12;;;;;;;;;;;18.80;99.90;;;;;;2096600;28;19924;-70
2023/07/11 02:46:16;;;;;;;;;;;18.80;99.90;;;;;;2092798;28;19924;-70
2023/07/11 02:47:16;;;;;;;;;;;18.80;99.90;;;;;;2096977;28;19978;-71
2023/07/11 02:48:17;;;;;;;;;;;18.80;99.90;;;;;;2097108;28;19912;-70
2023/07/11 02:49:19;;;;;;;;;;;18.80;99.90;;;;;;2097944;28;19916;-70
2023/07/11 02:50:20;;;;;;;;;;;18.80;99.90;;;;;;2095710;28;20247;-70
2023/07/11 02:51:20;;;;;;;;;;;18.80;99.90;;;;;;2095717;28;19912;-70
2023/07/11 02:52:21;;;;;;;;;;;18.80;99.90;;;;;;2096071;28;20321;-70
2023/07/11 02:53:21;;;;;;;;;;;18.80;99.90;;;;;;2099148;28;19913;-70
2023/07/11 02:54:22;;;;;;;;;;;18.80;99.90;;;;;;2096476;28;19912;-70
2023/07/11 02:55:22;;;;;;;;;;;18.80;99.90;;;;;;2096289;28;20420;-70
2023/07/11 02:56:23;;;;;;;;;;;18.80;99.90;;;;;;2098366;28;20035;-70
2023/07/11 02:57:23;;;;;;;;;;;18.70;99.90;;;;;;2095483;28;20264;-70
2023/07/11 02:58:24;;;;;;;;;;;18.70;99.90;;;;;;2095480;28;19916;-70
2023/07/11 02:59:24;;;;;;;;;;;18.80;99.90;;;;;;2096190;28;19942;-70
2023/07/11 03:00:25;;;;;;;;;;;18.70;99.90;;;;;;2096346;28;20298;-70
2023/07/11 03:01:26;;;;;;;;;;;18.70;99.90;;;;;;2098331;28;20071;-70
2023/07/11 03:02:27;;;;;;;;;;;18.70;99.90;;;;;;2097168;28;19917;-70
2023/07/11 03:03:27;;;;;;;;;;;18.70;99.90;;;;;;2097007;28;20366;-70
2023/07/11 03:04:29;;;;;;;;;;;18.70;99.90;;;;;;2096949;28;19916;-68
2023/07/11 03:05:29;;;;;;;;;;;18.70;99.90;;;;;;2097873;28;19922;-69
2023/07/11 03:06:30;;;;;;;;;;;18.70;99.90;;;;;;2095479;28;19919;-70
2023/07/11 03:07:30;;;;;;;;;;;18.70;99.90;;;;;;2095709;28;19931;-70
2023/07/11 03:08:31;;;;;;;;;;;18.70;99.90;;;;;;2092279;28;19916;-70
2023/07/11 03:09:32;;;;;;;;;;;18.70;99.90;;;;;;2094295;28;19916;-71
2023/07/11 03:10:32;;;;;;;;;;;18.70;99.90;;;;;;2096283;28;20267;-70
2023/07/11 03:11:33;;;;;;;;;;;18.70;99.90;;;;;;2093475;28;20129;-70
2023/07/11 03:12:33;;;;;;;;;;;18.70;99.90;;;;;;2097012;28;19912;-72
2023/07/11 03:13:34;;;;;;;;;;;18.70;99.90;;;;;;2097676;28;19969;-70
2023/07/11 03:14:34;;;;;;;;;;;18.80;99.90;;;;;;2095524;28;20341;-70
2023/07/11 03:15:38;;;;;;;;;;;18.80;99.90;;;;;;2095712;28;19916;-70
2023/07/11 03:16:39;;;;;;;;;;;18.80;99.90;;;;;;2087059;28;20291;-71
2023/07/11 03:17:39;;;;;;;;;;;18.80;99.90;;;;;;2087144;28;19943;-70
2023/07/11 03:18:40;;;;;;;;;;;18.80;99.90;;;;;;2096144;28;19912;-69
2023/07/11 03:19:40;;;;;;;;;;;18.90;99.90;;;;;;2098514;28;19913;-70
2023/07/11 03:20:42;;;;;;;;;;;18.90;99.90;;;;;;2093412;28;19922;-70
2023/07/11 03:21:42;;;;;;;;;;;18.90;99.90;;;;;;2092214;28;19931;-70
2023/07/11 03:22:43;;;;;;;;;;;18.90;99.90;;;;;;2092642;28;19917;-70
2023/07/11 03:23:43;;;;;;;;;;;18.90;99.90;;;;;;2096458;28;19920;-68
2023/07/11 03:24:43;;;;;;;;;;;19.00;99.90;;;;;;2098271;28;20294;-69
2023/07/11 03:25:45;;;;;;;;;;;19.00;99.90;;;;;;2095505;28;19996;-68
2023/07/11 03:26:48;;;;;;;;;;;19.00;99.90;;;;;;2095553;28;20288;-69
2023/07/11 03:27:49;;;;;;;;;;;19.00;99.90;;;;;;2095151;28;19912;-70
2023/07/11 03:28:50;;;;;;;;;;;19.00;99.90;;;;;;2097004;28;19928;-69
2023/07/11 03:29:50;;;;;;;;;;;19.00;99.90;;;;;;2095598;28;19916;-69
2023/07/11 03:30:51;;;;;;;;;;;19.00;99.90;;;;;;2092192;28;20650;-69
2023/07/11 03:31:52;;;;;;;;;;;19.10;99.90;;;;;;2096794;28;19916;-70
2023/07/11 03:32:52;;;;;;;;;;;19.10;99.90;;;;;;2096894;28;19916;-69
2023/07/11 03:33:53;;;;;;;;;;;19.10;99.90;;;;;;2097984;28;20325;-70
2023/07/11 03:34:53;;;;;;;;;;;19.10;99.90;;;;;;2095519;28;19924;-69
2023/07/11 03:35:54;;;;;;;;;;;19.10;99.90;;;;;;2095397;28;19916;-70
2023/07/11 03:36:54;;;;;;;;;;;19.10;99.90;;;;;;2095361;28;20333;-69
2023/07/11 03:37:54;;;;;;;;;;;19.10;99.90;;;;;;2098356;28;19965;-70
2023/07/11 03:38:55;;;;;;;;;;;19.10;99.90;;;;;;2096524;28;19912;-69
2023/07/11 03:39:55;;;;;;;;;;;19.10;99.90;;;;;;2096912;28;20053;-69
2023/07/11 03:40:56;;;;;;;;;;;19.10;99.90;;;;;;2096792;28;19920;-69
2023/07/11 03:41:56;;;;;;;;;;;19.20;99.90;;;;;;2097825;28;20827;-69
2023/07/11 03:42:57;;;;;;;;;;;19.20;99.90;;;;;;2095269;28;20385;-69
2023/07/11 03:43:57;;;;;;;;;;;19.20;99.90;;;;;;2095323;28;19967;-69
2023/07/11 03:44:58;;;;;;;;;;;19.20;99.90;;;;;;2094903;28;19923;-69
2023/07/11 03:45:58;;;;;;;;;;;19.20;99.90;;;;;;2093003;28;20360;-70
2023/07/11 03:46:59;;;;;;;;;;;19.20;99.90;;;;;;2096363;28;19928;-71
2023/07/11 03:47:59;;;;;;;;;;;19.20;99.90;;;;;;2092400;28;19916;-69
2023/07/11 03:49:00;;;;;;;;;;;19.30;99.90;;;;;;2092913;28;20313;-70
2023/07/11 03:50:01;;;;;;;;;;;19.30;99.90;;;;;;2096187;28;19916;-70
2023/07/11 03:51:01;;;;;;;;;;;19.30;99.90;;;;;;2096089;28;20002;-71
2023/07/11 03:52:01;;;;;;;;;;;19.30;99.90;;;;;;2098556;28;19919;-69
2023/07/11 03:53:02;;;;;;;;;;;19.40;99.90;;;;;;2095383;28;20321;-69
2023/07/11 03:54:03;;;;;;;;;;;19.40;99.90;;;;;;2095613;28;20006;-70
2023/07/11 03:55:03;;;;;;;;;;;19.40;99.90;;;;;;2095621;28;20125;-70
2023/07/11 03:56:04;;;;;;;;;;;19.40;99.90;;;;;;2098026;28;19917;-69
2023/07/11 03:57:05;;;;;;;;;;;19.40;99.90;;;;;;2097479;28;19917;-66
2023/07/11 03:58:05;;;;;;;;;;;19.40;99.90;;;;;;2096134;28;19917;-84
2023/07/11 03:59:06;;;;;;;;;;;19.50;99.90;;;;;;2098613;28;20039;-72
2023/07/11 04:00:07;;;;;;;;;;;19.50;99.90;;;;;;2095833;28;20386;-70
2023/07/11 04:01:13;;;;;;;;;;;19.50;99.90;;;;;;2100545;28;19919;-81
2023/07/11 04:02:14;;;;;;;;;;;19.50;99.90;;;;;;2097640;28;19951;-82
2023/07/11 04:03:15;;;;;;;;;;;19.50;99.90;;;;;;2095584;28;19916;-83
2023/07/11 04:04:16;;;;;;;;;;;19.60;99.90;;;;;;2094889;28;20347;-85
2023/07/11 04:05:16;;;;;;;;;;;19.60;99.90;;;;;;2097177;28;19974;-82
2023/07/11 04:06:17;;;;;;;;;;;19.50;99.90;;;;;;2093934;28;19920;-82
2023/07/11 04:07:17;;;;;;;;;;;19.60;99.90;;;;;;2098148;28;19920;-84
2023/07/11 04:08:18;;;;;;;;;;;19.50;99.90;;;;;;2099511;28;20436;-84
2023/07/11 04:09:18;;;;;;;;;;;19.60;99.90;;;;;;2095780;28;19967;-83
2023/07/11 04:10:19;;;;;;;;;;;19.60;99.90;;;;;;2097696;28;20408;-83
2023/07/11 04:11:20;;;;;;;;;;;19.60;99.90;;;;;;2098033;28;20033;-79
2023/07/11 04:12:20;;;;;;;;;;;19.60;99.90;;;;;;2099421;28;19982;-83
2023/07/11 04:13:21;;;;;;;;;;;19.70;99.90;;;;;;2095527;28;19924;-81
2023/07/11 04:14:21;;;;;;;;;;;19.80;99.90;;;;;;2095619;28;19919;-80
2023/07/11 04:15:22;;;;;;;;;;;19.90;99.90;;;;;;2096232;28;20221;-82
2023/07/11 04:16:22;;;;;;;;;;;20.00;99.90;;;;;;2099422;28;19917;-82
2023/07/11 04:17:23;;;;;;;;;;;20.20;99.90;;;;;;2091286;28;20440;-82
2023/07/11 04:18:23;;;;;;;;;;;20.40;99.90;;;;;;2096876;28;19912;-82
2023/07/11 04:19:24;;;;;;;;;;;20.60;99.90;;;;;;2099160;28;19955;-81
2023/07/11 04:20:24;;;;;;;;;;;20.80;99.90;;;;;;2093919;28;20279;-82
2023/07/11 04:21:25;;;;;;;;;;;21.00;99.90;;;;;;2096983;28;19974;-79
2023/07/11 04:22:25;;;;;;;;;;;21.10;99.90;;;;;;2096857;28;19920;-78
2023/07/11 04:23:26;;;;;;;;;;;21.30;99.90;;;;;;2099411;28;19923;-81
2023/07/11 04:24:26;;;;;;;;;;;21.50;99.90;;;;;;2097998;28;19917;-78
2023/07/11 04:25:27;;;;;;;;;;;21.80;99.90;;;;;;2093910;28;19912;-81
2023/07/11 04:26:28;;;;;;;;;;;22.10;99.90;;;;;;2096861;28;19923;-80
2023/07/11 04:27:28;;;;;;;;;;;22.40;99.90;;;;;;2097870;28;19959;-80
2023/07/11 04:28:30;;;;;;;;;;;22.70;99.90;;;;;;2099296;28;20025;-81
2023/07/11 04:29:30;;;;;;;;;;;23.00;99.90;;;;;;2093214;28;20400;-81
2023/07/11 04:30:31;;;;;;;;;;;23.30;99.90;;;;;;2096429;28;20371;-83
2023/07/11 04:31:31;;;;;;;;;;;23.40;99.90;;;;;;2097242;28;19951;-83
2023/07/11 04:32:32;;;;;;;;;;;23.60;99.90;;;;;;2097198;28;20400;-82
2023/07/11 04:33:32;;;;;;;;;;;23.80;99.90;;;;;;2100096;28;19917;-81
2023/07/11 04:34:33;;;;;;;;;;;23.90;99.90;;;;;;2094220;28;19961;-81
2023/07/11 04:35:33;;;;;;;;;;;24.00;99.90;;;;;;2098564;28;19912;-81
2023/07/11 04:36:34;;;;;;;;;;;24.00;99.90;;;;;;2097195;28;20363;-81
2023/07/11 04:37:35;;;;;;;;;;;23.90;99.90;;;;;;2099647;28;20015;-81
2023/07/11 04:38:36;;;;;;;;;;;23.90;99.90;;;;;;2097447;28;19923;-81
2023/07/11 04:39:39;;;;;;;;;;;23.80;99.90;;;;;;2096962;28;20025;-81
2023/07/11 04:40:40;;;;;;;;;;;23.80;99.90;;;;;;2096134;28;20026;-81
2023/07/11 04:41:40;;;;;;;;;;;23.80;99.90;;;;;;2092016;28;19917;-79
2023/07/11 04:42:41;;;;;;;;;;;23.80;99.90;;;;;;2100249;28;19970;-81
2023/07/11 04:43:41;;;;;;;;;;;23.80;99.90;;;;;;2091940;28;19912;-81
2023/07/11 04:44:42;;;;;;;;;;;23.70;99.90;;;;;;2095057;28;20264;-81
2023/07/11 04:45:42;;;;;;;;;;;23.70;99.90;;;;;;2097774;28;19915;-81
2023/07/11 04:46:43;;;;;;;;;;;23.60;99.90;;;;;;2090927;28;19917;-80
2023/07/11 04:47:43;;;;;;;;;;;23.50;99.90;;;;;;2097884;28;19913;-80
2023/07/11 04:48:44;;;;;;;;;;;23.60;99.90;;;;;;2097290;28;19941;-80
2023/07/11 04:49:44;;;;;;;;;;;23.60;99.90;;;;;;2097415;28;19947;-82
2023/07/11 04:50:45;;;;;;;;;;;23.70;99.90;;;;;;2098459;28;19916;-79
2023/07/11 04:51:45;;;;;;;;;;;23.80;99.90;;;;;;2095241;28;19917;-80
2023/07/11 04:52:46;;;;;;;;;;;24.00;99.90;;;;;;2096409;28;20246;-80
2023/07/11 04:53:46;;;;;;;;;;;24.30;99.90;;;;;;2096879;28;20011;-80
2023/07/11 04:54:46;;;;;;;;;;;24.40;99.90;;;;;;2096024;28;20366;-78
2023/07/11 04:55:53;;;;;;;;;;;24.60;99.90;;;;;;2099342;28;19923;-79
2023/07/11 04:56:57;;;;;;;;;;;24.70;99.90;;;;;;2091906;28;19916;-80
2023/07/11 04:57:58;;;;;;;;;;;24.80;99.90;;;;;;2093879;28;20372;-80
2023/07/11 04:58:59;;;;;;;;;;;24.90;99.90;;;;;;2093520;28;20183;-81
2023/07/11 05:00:00;;;;;;;;;;;25.00;99.90;;;;;;2098139;28;19927;-79
2023/07/11 05:01:00;;;;;;;;;;;25.20;99.90;;;;;;2099115;28;20405;-81
2023/07/11 05:02:01;;;;;;;;;;;25.30;99.90;;;;;;2093736;28;19924;-81
2023/07/11 05:03:01;;;;;;;;;;;25.50;99.90;;;;;;2089749;28;19940;-81
2023/07/11 05:04:02;;;;;;;;;;;25.60;99.90;;;;;;2097066;28;19912;-81
2023/07/11 05:05:02;;;;;;;;;;;25.70;99.90;;;;;;2098515;28;19916;-81
2023/07/11 05:06:03;;;;;;;;;;;25.90;99.90;;;;;;2095160;28;20428;-80
2023/07/11 05:07:04;;;;;;;;;;;26.10;99.90;;;;;;2096934;28;19912;-76
2023/07/11 05:08:04;;;;;;;;;;;26.20;99.90;;;;;;2092822;28;19962;-81
2023/07/11 05:09:05;;;;;;;;;;;26.40;99.90;;;;;;2095624;28;20345;-80
2023/07/11 05:10:06;;;;;;;;;;;26.60;99.90;;;;;;2099415;28;20442;-80
2023/07/11 05:11:11;;;;;;;;;;;26.70;99.90;;;;;;2093821;28;19938;-81
2023/07/11 05:12:11;;;;;;;;;;;26.90;99.30;;;;;;2096679;28;20320;-81
2023/07/11 05:13:12;;;;;;;;;;;27.00;98.50;;;;;;2096056;28;19923;-81
2023/07/11 05:14:12;;;;;;;;;;;27.10;97.90;;;;;;2093675;28;19917;-80
2023/07/11 05:15:13;;;;;;;;;;;27.20;96.90;;;;;;2098928;28;20452;-81
2023/07/11 05:16:18;;;;;;;;;;;27.30;96.30;;;;;;2098463;28;19959;-79
2023/07/11 05:17:19;;;;;;;;;;;27.50;95.80;;;;;;2089734;28;19967;-80
2023/07/11 05:18:19;;;;;;;;;;;27.70;95.00;;;;;;2093500;28;19916;-78
2023/07/11 05:19:20;;;;;;;;;;;28.00;94.30;;;;;;2098054;28;19930;-77
2023/07/11 05:20:20;;;;;;;;;;;28.10;93.10;;;;;;2095154;28;20015;-77
2023/07/11 05:21:21;;;;;;;;;;;28.10;92.60;;;;;;2095559;28;20266;-77
2023/07/11 05:22:21;;;;;;;;;;;28.10;92.30;;;;;;2095804;28;19921;-78
2023/07/11 05:23:23;;;;;;;;;;;28.10;91.90;;;;;;2096293;28;19977;-77
2023/07/11 05:24:24;;;;;;;;;;;28.20;91.70;;;;;;2090494;28;19920;-78
2023/07/11 05:25:25;;;;;;;;;;;28.20;91.40;;;;;;2092565;28;19913;-79
2023/07/11 05:26:25;;;;;;;;;;;28.30;91.00;;;;;;2097340;28;20326;-78
2023/07/11 05:27:27;;;;;;;;;;;28.30;90.80;;;;;;2099506;28;20014;-78
2023/07/11 05:28:29;;;;;;;;;;;28.30;90.50;;;;;;2093611;28;20410;-78
2023/07/11 05:29:30;;;;;;;;;;;28.30;90.30;;;;;;2096412;28;20067;-79
2023/07/11 05:30:31;;;;;;;;;;;28.30;90.00;;;;;;2095399;28;20531;-78
2023/07/11 05:31:31;;;;;;;;;;;28.30;90.10;;;;;;2093709;28;19913;-79
2023/07/11 05:32:32;;;;;;;;;;;28.40;89.00;;;;;;2097556;28;19923;-77
2023/07/11 05:33:32;;;;;;;;;;;28.50;88.40;;;;;;2091648;28;19916;-79
2023/07/11 05:34:33;;;;;;;;;;;28.40;88.50;;;;;;2089178;28;19916;-78
2023/07/11 05:35:37;;;;;;;;;;;28.40;87.90;;;;;;2094582;28;19912;-78
2023/07/11 05:36:38;;;;;;;;;;;28.30;87.80;;;;;;2093259;28;19923;-76
2023/07/11 05:37:38;;;;;;;;;;;28.20;87.10;;;;;;2096073;28;20321;-80
2023/07/11 05:38:39;;;;;;;;;;;28.10;87.70;;;;;;2096566;28;19931;-79
2023/07/11 05:39:39;;;;;;;;;;;28.10;87.10;;;;;;2096499;28;19917;-75
2023/07/11 05:40:40;;;;;;;;;;;28.10;87.70;;;;;;2096997;28;20341;-79
2023/07/11 05:41:44;;;;;;;;;;;28.30;87.70;;;;;;2096153;28;19920;-77
2023/07/11 05:42:45;;;;;;;;;;;28.50;87.00;;;;;;2089864;28;19913;-83
2023/07/11 05:43:45;;;;;;;;;;;28.50;86.20;;;;;;2088316;28;19917;-79
2023/07/11 05:44:46;;;;;;;;;;;28.40;85.70;;;;;;2092948;28;19921;-81
2023/07/11 05:45:46;;;;;;;;;;;28.40;86.50;;;;;;2098033;28;19912;-80
2023/07/11 05:46:47;;;;;;;;;;;28.50;85.70;;;;;;2099556;28;19977;-74
2023/07/11 05:47:47;;;;;;;;;;;28.40;85.00;;;;;;2096188;28;20842;-75
2023/07/11 05:48:48;;;;;;;;;;;28.50;84.70;;;;;;2096061;28;20343;-79
2023/07/11 05:49:48;;;;;;;;;;;28.50;84.20;;;;;;2096008;28;19963;-80
2023/07/11 05:50:59;;;;;;;;;;;28.60;84.00;;;;;;2096441;28;20298;-81
2023/07/11 05:51:59;;;;;;;;;;;28.70;84.50;;;;;;2095773;28;20204;-82
2023/07/11 05:53:00;;;;;;;;;;;28.70;83.60;;;;;;2096354;28;19916;-81
2023/07/11 05:54:00;;;;;;;;;;;28.80;83.20;;;;;;2099185;28;20643;-79
2023/07/11 05:55:01;;;;;;;;;;;28.60;82.90;;;;;;2093782;28;19916;-87